sensor_id;sensor_type;location;lat;lon;timestamp;P1;durP1;ratioP1;P2;durP2;ratioP2
83096;SDS011;72968;49.460;11.004;2024-03-07T00:02:05;17.30;;;8.90;;
83096;SDS011;72968;49.460;11.004;2024-03-07T00:04:39;15.98;;;8.32;;
83096;SDS011;72968;49.460;11.004;2024-03-07T00:07:11;17.58;;;7.82;;
83096;SDS011;72968;49.460;11.004;2024-03-07T00:09:42;15.73;;;8.23;;
83096;SDS011;72968;49.460;11.004;2024-03-07T00:12:14;18.33;;;6.68;;
83096;SDS011;72968;49.460;11.004;2024-03-07T00:14:46;19.42;;;7.45;;
83096;SDS011;72968;49.460;11.004;2024-03-07T00:17:19;16.35;;;7.70;;
83096;SDS011;72968;49.460;11.004;2024-03-07T00:19:51;15.25;;;7.88;;
83096;SDS011;72968;49.460;11.004;2024-03-07T00:22:22;15.52;;;7.38;;
83096;SDS011;72968;49.460;11.004;2024-03-07T00:24:56;17.55;;;7.35;;
83096;SDS011;72968;49.460;11.004;2024-03-07T00:27:29;22.23;;;8.07;;
83096;SDS011;72968;49.460;11.004;2024-03-07T00:30:00;14.60;;;6.80;;
83096;SDS011;72968;49.460;11.004;2024-03-07T00:32:32;16.73;;;7.95;;
83096;SDS011;72968;49.460;11.004;2024-03-07T00:35:07;17.33;;;7.30;;
83096;SDS011;72968;49.460;11.004;2024-03-07T00:37:38;15.40;;;8.05;;
83096;SDS011;72968;49.460;11.004;2024-03-07T00:40:10;17.90;;;8.80;;
83096;SDS011;72968;49.460;11.004;2024-03-07T00:42:42;17.75;;;7.80;;
83096;SDS011;72968;49.460;11.004;2024-03-07T00:45:14;20.52;;;9.90;;
83096;SDS011;72968;49.460;11.004;2024-03-07T00:47:45;19.50;;;10.02;;
83096;SDS011;72968;49.460;11.004;2024-03-07T00:50:21;19.23;;;9.10;;
83096;SDS011;72968;49.460;11.004;2024-03-07T00:52:53;17.38;;;8.50;;
83096;SDS011;72968;49.460;11.004;2024-03-07T00:55:27;22.85;;;9.23;;
83096;SDS011;72968;49.460;11.004;2024-03-07T00:57:58;18.45;;;8.75;;
83096;SDS011;72968;49.460;11.004;2024-03-07T01:00:30;24.55;;;10.00;;
83096;SDS011;72968;49.460;11.004;2024-03-07T01:03:04;19.63;;;9.45;;
83096;SDS011;72968;49.460;11.004;2024-03-07T01:05:37;18.42;;;9.50;;
83096;SDS011;72968;49.460;11.004;2024-03-07T01:08:12;20.75;;;8.32;;
83096;SDS011;72968;49.460;11.004;2024-03-07T01:10:43;17.45;;;8.60;;
83096;SDS011;72968;49.460;11.004;2024-03-07T01:13:18;18.48;;;8.63;;
83096;SDS011;72968;49.460;11.004;2024-03-07T01:15:54;20.00;;;8.95;;
83096;SDS011;72968;49.460;11.004;2024-03-07T01:18:25;17.52;;;8.38;;
83096;SDS011;72968;49.460;11.004;2024-03-07T01:20:58;18.23;;;7.80;;
83096;SDS011;72968;49.460;11.004;2024-03-07T01:23:30;21.35;;;8.25;;
83096;SDS011;72968;49.460;11.004;2024-03-07T01:26:02;15.63;;;7.75;;
83096;SDS011;72968;49.460;11.004;2024-03-07T01:28:33;16.15;;;8.02;;
83096;SDS011;72968;49.460;11.004;2024-03-07T01:31:05;16.10;;;7.88;;
83096;SDS011;72968;49.460;11.004;2024-03-07T01:33:38;15.73;;;7.90;;
83096;SDS011;72968;49.460;11.004;2024-03-07T01:36:10;17.63;;;8.43;;
83096;SDS011;72968;49.460;11.004;2024-03-07T01:38:43;21.38;;;8.75;;
83096;SDS011;72968;49.460;11.004;2024-03-07T01:41:18;15.40;;;8.13;;
83096;SDS011;72968;49.460;11.004;2024-03-07T01:43:51;19.73;;;8.88;;
83096;SDS011;72968;49.460;11.004;2024-03-07T01:46:30;18.15;;;8.25;;
83096;SDS011;72968;49.460;11.004;2024-03-07T01:49:03;16.98;;;8.80;;
83096;SDS011;72968;49.460;11.004;2024-03-07T01:54:27;17.75;;;8.68;;
83096;SDS011;72968;49.460;11.004;2024-03-07T01:57:00;18.65;;;8.05;;
83096;SDS011;72968;49.460;11.004;2024-03-07T01:59:32;21.00;;;8.57;;
83096;SDS011;72968;49.460;11.004;2024-03-07T02:02:09;17.50;;;8.10;;
83096;SDS011;72968;49.460;11.004;2024-03-07T02:04:43;14.90;;;8.18;;
83096;SDS011;72968;49.460;11.004;2024-03-07T02:07:15;20.80;;;9.32;;
83096;SDS011;72968;49.460;11.004;2024-03-07T02:09:48;18.48;;;9.43;;
83096;SDS011;72968;49.460;11.004;2024-03-07T02:12:23;15.50;;;7.63;;
83096;SDS011;72968;49.460;11.004;2024-03-07T02:14:59;18.02;;;8.45;;
83096;SDS011;72968;49.460;11.004;2024-03-07T02:17:31;14.60;;;7.93;;
83096;SDS011;72968;49.460;11.004;2024-03-07T02:20:06;16.05;;;8.52;;
83096;SDS011;72968;49.460;11.004;2024-03-07T02:22:42;14.68;;;7.32;;
83096;SDS011;72968;49.460;11.004;2024-03-07T02:25:14;16.05;;;7.53;;
83096;SDS011;72968;49.460;11.004;2024-03-07T02:27:49;13.43;;;6.57;;
83096;SDS011;72968;49.460;11.004;2024-03-07T02:30:22;15.80;;;6.95;;
83096;SDS011;72968;49.460;11.004;2024-03-07T02:32:54;13.70;;;7.32;;
83096;SDS011;72968;49.460;11.004;2024-03-07T02:35:26;13.50;;;7.30;;
83096;SDS011;72968;49.460;11.004;2024-03-07T02:37:59;13.90;;;6.95;;
83096;SDS011;72968;49.460;11.004;2024-03-07T02:40:33;15.45;;;7.93;;
83096;SDS011;72968;49.460;11.004;2024-03-07T02:43:06;13.02;;;7.40;;
83096;SDS011;72968;49.460;11.004;2024-03-07T02:45:38;13.05;;;6.38;;
83096;SDS011;72968;49.460;11.004;2024-03-07T02:48:10;13.13;;;7.03;;
83096;SDS011;72968;49.460;11.004;2024-03-07T02:50:44;13.88;;;6.80;;
83096;SDS011;72968;49.460;11.004;2024-03-07T02:53:20;12.23;;;6.65;;
83096;SDS011;72968;49.460;11.004;2024-03-07T02:55:51;13.27;;;6.40;;
83096;SDS011;72968;49.460;11.004;2024-03-07T02:58:23;14.23;;;6.68;;
83096;SDS011;72968;49.460;11.004;2024-03-07T03:00:56;13.38;;;6.57;;
83096;SDS011;72968;49.460;11.004;2024-03-07T03:03:28;14.63;;;6.90;;
83096;SDS011;72968;49.460;11.004;2024-03-07T03:06:06;11.18;;;5.82;;
83096;SDS011;72968;49.460;11.004;2024-03-07T03:08:40;11.60;;;5.85;;
83096;SDS011;72968;49.460;11.004;2024-03-07T03:11:13;11.60;;;6.10;;
83096;SDS011;72968;49.460;11.004;2024-03-07T03:13:46;13.25;;;6.10;;
83096;SDS011;72968;49.460;11.004;2024-03-07T03:16:20;12.38;;;6.25;;
83096;SDS011;72968;49.460;11.004;2024-03-07T03:18:52;9.52;;;5.57;;
83096;SDS011;72968;49.460;11.004;2024-03-07T03:21:24;11.48;;;5.43;;
83096;SDS011;72968;49.460;11.004;2024-03-07T03:24:02;11.07;;;6.00;;
83096;SDS011;72968;49.460;11.004;2024-03-07T03:26:34;11.70;;;5.47;;
83096;SDS011;72968;49.460;11.004;2024-03-07T03:29:07;11.23;;;5.95;;
83096;SDS011;72968;49.460;11.004;2024-03-07T03:31:39;10.65;;;6.22;;
83096;SDS011;72968;49.460;11.004;2024-03-07T03:34:11;12.65;;;5.22;;
83096;SDS011;72968;49.460;11.004;2024-03-07T03:36:42;9.57;;;4.93;;
83096;SDS011;72968;49.460;11.004;2024-03-07T03:39:18;11.23;;;5.90;;
83096;SDS011;72968;49.460;11.004;2024-03-07T03:44:32;10.65;;;5.32;;
83096;SDS011;72968;49.460;11.004;2024-03-07T03:47:06;8.80;;;4.68;;
83096;SDS011;72968;49.460;11.004;2024-03-07T03:49:40;11.13;;;5.10;;
83096;SDS011;72968;49.460;11.004;2024-03-07T03:52:14;10.45;;;5.25;;
83096;SDS011;72968;49.460;11.004;2024-03-07T03:54:48;9.32;;;5.22;;
83096;SDS011;72968;49.460;11.004;2024-03-07T03:57:21;9.95;;;5.45;;
83096;SDS011;72968;49.460;11.004;2024-03-07T04:00:08;13.00;;;5.50;;
83096;SDS011;72968;49.460;11.004;2024-03-07T04:02:45;9.07;;;4.78;;
83096;SDS011;72968;49.460;11.004;2024-03-07T04:05:18;10.57;;;5.63;;
83096;SDS011;72968;49.460;11.004;2024-03-07T04:07:56;10.82;;;5.68;;
83096;SDS011;72968;49.460;11.004;2024-03-07T04:10:31;9.93;;;5.57;;
83096;SDS011;72968;49.460;11.004;2024-03-07T04:13:04;11.27;;;5.43;;
83096;SDS011;72968;49.460;11.004;2024-03-07T04:15:41;9.55;;;5.32;;
83096;SDS011;72968;49.460;11.004;2024-03-07T04:18:14;14.65;;;6.35;;
83096;SDS011;72968;49.460;11.004;2024-03-07T04:20:46;12.30;;;5.75;;
83096;SDS011;72968;49.460;11.004;2024-03-07T04:23:22;13.77;;;5.95;;
83096;SDS011;72968;49.460;11.004;2024-03-07T04:25:57;14.43;;;6.00;;
83096;SDS011;72968;49.460;11.004;2024-03-07T04:28:29;14.57;;;5.93;;
83096;SDS011;72968;49.460;11.004;2024-03-07T04:31:00;13.40;;;6.55;;
83096;SDS011;72968;49.460;11.004;2024-03-07T04:33:32;9.48;;;5.05;;
83096;SDS011;72968;49.460;11.004;2024-03-07T04:36:04;11.85;;;6.28;;
83096;SDS011;72968;49.460;11.004;2024-03-07T04:38:38;11.73;;;5.22;;
83096;SDS011;72968;49.460;11.004;2024-03-07T04:41:16;11.93;;;4.82;;
83096;SDS011;72968;49.460;11.004;2024-03-07T04:43:50;12.27;;;6.25;;
83096;SDS011;72968;49.460;11.004;2024-03-07T04:46:25;12.05;;;6.05;;
83096;SDS011;72968;49.460;11.004;2024-03-07T04:48:59;10.98;;;6.25;;
83096;SDS011;72968;49.460;11.004;2024-03-07T04:51:31;12.13;;;5.05;;
83096;SDS011;72968;49.460;11.004;2024-03-07T04:54:03;9.73;;;5.30;;
83096;SDS011;72968;49.460;11.004;2024-03-07T04:56:36;11.10;;;5.50;;
83096;SDS011;72968;49.460;11.004;2024-03-07T04:59:07;14.30;;;5.70;;
83096;SDS011;72968;49.460;11.004;2024-03-07T05:01:41;13.45;;;5.60;;
83096;SDS011;72968;49.460;11.004;2024-03-07T05:04:13;12.70;;;5.90;;
83096;SDS011;72968;49.460;11.004;2024-03-07T05:06:46;12.63;;;6.05;;
83096;SDS011;72968;49.460;11.004;2024-03-07T05:09:19;9.85;;;5.15;;
83096;SDS011;72968;49.460;11.004;2024-03-07T05:11:57;14.50;;;6.00;;
83096;SDS011;72968;49.460;11.004;2024-03-07T05:14:28;12.52;;;5.78;;
83096;SDS011;72968;49.460;11.004;2024-03-07T05:17:03;12.05;;;5.15;;
83096;SDS011;72968;49.460;11.004;2024-03-07T05:19:36;10.45;;;5.40;;
83096;SDS011;72968;49.460;11.004;2024-03-07T05:22:08;11.23;;;5.25;;
83096;SDS011;72968;49.460;11.004;2024-03-07T05:24:46;11.20;;;5.55;;
83096;SDS011;72968;49.460;11.004;2024-03-07T05:35:58;10.43;;;5.18;;
83096;SDS011;72968;49.460;11.004;2024-03-07T05:38:44;10.20;;;5.82;;
83096;SDS011;72968;49.460;11.004;2024-03-07T05:41:19;13.15;;;5.95;;
83096;SDS011;72968;49.460;11.004;2024-03-07T05:43:50;10.80;;;5.28;;
83096;SDS011;72968;49.460;11.004;2024-03-07T05:46:24;13.70;;;5.60;;
83096;SDS011;72968;49.460;11.004;2024-03-07T05:49:06;12.68;;;6.40;;
83096;SDS011;72968;49.460;11.004;2024-03-07T05:51:45;15.25;;;6.75;;
83096;SDS011;72968;49.460;11.004;2024-03-07T05:54:23;12.85;;;5.70;;
83096;SDS011;72968;49.460;11.004;2024-03-07T05:56:55;13.73;;;5.53;;
83096;SDS011;72968;49.460;11.004;2024-03-07T05:59:30;10.60;;;5.80;;
83096;SDS011;72968;49.460;11.004;2024-03-07T06:02:08;12.40;;;6.35;;
83096;SDS011;72968;49.460;11.004;2024-03-07T06:04:39;15.48;;;5.78;;
83096;SDS011;72968;49.460;11.004;2024-03-07T06:10:04;12.07;;;5.75;;
83096;SDS011;72968;49.460;11.004;2024-03-07T06:12:41;12.00;;;6.38;;
83096;SDS011;72968;49.460;11.004;2024-03-07T06:15:15;12.55;;;5.07;;
83096;SDS011;72968;49.460;11.004;2024-03-07T06:20:55;13.32;;;6.10;;
83096;SDS011;72968;49.460;11.004;2024-03-07T06:23:42;11.73;;;6.18;;
83096;SDS011;72968;49.460;11.004;2024-03-07T06:32:21;11.20;;;6.22;;
83096;SDS011;72968;49.460;11.004;2024-03-07T06:34:54;14.38;;;5.65;;
83096;SDS011;72968;49.460;11.004;2024-03-07T06:37:27;15.38;;;7.05;;
83096;SDS011;72968;49.460;11.004;2024-03-07T06:39:58;17.38;;;7.43;;
83096;SDS011;72968;49.460;11.004;2024-03-07T06:42:31;15.18;;;7.13;;
83096;SDS011;72968;49.460;11.004;2024-03-07T06:45:04;15.32;;;6.55;;
83096;SDS011;72968;49.460;11.004;2024-03-07T06:47:38;13.43;;;6.88;;
83096;SDS011;72968;49.460;11.004;2024-03-07T06:50:10;14.60;;;7.13;;
83096;SDS011;72968;49.460;11.004;2024-03-07T06:52:44;13.57;;;6.70;;
83096;SDS011;72968;49.460;11.004;2024-03-07T06:55:19;13.20;;;6.43;;
83096;SDS011;72968;49.460;11.004;2024-03-07T06:58:21;13.85;;;6.38;;
83096;SDS011;72968;49.460;11.004;2024-03-07T07:00:53;14.57;;;6.97;;
83096;SDS011;72968;49.460;11.004;2024-03-07T07:06:22;13.32;;;6.43;;
83096;SDS011;72968;49.460;11.004;2024-03-07T07:08:54;16.48;;;7.57;;
83096;SDS011;72968;49.460;11.004;2024-03-07T07:11:25;13.95;;;7.38;;
83096;SDS011;72968;49.460;11.004;2024-03-07T07:13:57;14.77;;;7.03;;
83096;SDS011;72968;49.460;11.004;2024-03-07T07:16:29;16.05;;;7.95;;
83096;SDS011;72968;49.460;11.004;2024-03-07T07:19:07;17.77;;;8.00;;
83096;SDS011;72968;49.460;11.004;2024-03-07T07:22:04;15.70;;;7.65;;
83096;SDS011;72968;49.460;11.004;2024-03-07T07:24:42;15.77;;;7.93;;
83096;SDS011;72968;49.460;11.004;2024-03-07T07:27:15;15.07;;;6.55;;
83096;SDS011;72968;49.460;11.004;2024-03-07T07:29:48;14.07;;;7.10;;
83096;SDS011;72968;49.460;11.004;2024-03-07T07:32:21;11.35;;;6.45;;
83096;SDS011;72968;49.460;11.004;2024-03-07T07:34:54;15.55;;;6.97;;
83096;SDS011;72968;49.460;11.004;2024-03-07T07:37:27;15.13;;;8.15;;
83096;SDS011;72968;49.460;11.004;2024-03-07T07:39:59;12.75;;;6.82;;
83096;SDS011;72968;49.460;11.004;2024-03-07T07:42:32;16.77;;;7.53;;
83096;SDS011;72968;49.460;11.004;2024-03-07T07:45:13;13.35;;;5.90;;
83096;SDS011;72968;49.460;11.004;2024-03-07T07:47:47;14.50;;;7.30;;
83096;SDS011;72968;49.460;11.004;2024-03-07T07:50:21;13.73;;;7.55;;
83096;SDS011;72968;49.460;11.004;2024-03-07T07:52:55;15.20;;;7.38;;
83096;SDS011;72968;49.460;11.004;2024-03-07T07:55:27;13.57;;;6.80;;
83096;SDS011;72968;49.460;11.004;2024-03-07T07:57:59;15.20;;;7.60;;
83096;SDS011;72968;49.460;11.004;2024-03-07T08:00:34;14.20;;;7.45;;
83096;SDS011;72968;49.460;11.004;2024-03-07T08:03:06;14.52;;;7.43;;
83096;SDS011;72968;49.460;11.004;2024-03-07T08:05:38;16.15;;;7.30;;
83096;SDS011;72968;49.460;11.004;2024-03-07T08:11:14;14.88;;;7.53;;
83096;SDS011;72968;49.460;11.004;2024-03-07T08:13:47;13.40;;;7.15;;
83096;SDS011;72968;49.460;11.004;2024-03-07T08:16:21;12.90;;;7.22;;
83096;SDS011;72968;49.460;11.004;2024-03-07T08:18:54;16.77;;;7.75;;
83096;SDS011;72968;49.460;11.004;2024-03-07T08:21:27;17.63;;;8.20;;
83096;SDS011;72968;49.460;11.004;2024-03-07T08:23:59;12.25;;;7.05;;
83096;SDS011;72968;49.460;11.004;2024-03-07T08:26:36;11.82;;;6.82;;
83096;SDS011;72968;49.460;11.004;2024-03-07T08:29:08;14.48;;;8.13;;
83096;SDS011;72968;49.460;11.004;2024-03-07T08:31:42;14.65;;;7.55;;
83096;SDS011;72968;49.460;11.004;2024-03-07T08:34:27;15.18;;;7.78;;
83096;SDS011;72968;49.460;11.004;2024-03-07T08:37:04;12.90;;;6.50;;
83096;SDS011;72968;49.460;11.004;2024-03-07T08:39:46;13.00;;;8.05;;
83096;SDS011;72968;49.460;11.004;2024-03-07T08:42:19;13.40;;;7.47;;
83096;SDS011;72968;49.460;11.004;2024-03-07T08:44:51;11.38;;;5.72;;
83096;SDS011;72968;49.460;11.004;2024-03-07T08:47:22;13.15;;;6.95;;
83096;SDS011;72968;49.460;11.004;2024-03-07T08:49:54;16.02;;;7.47;;
83096;SDS011;72968;49.460;11.004;2024-03-07T08:52:26;13.52;;;7.05;;
83096;SDS011;72968;49.460;11.004;2024-03-07T08:54:57;13.80;;;7.53;;
83096;SDS011;72968;49.460;11.004;2024-03-07T08:57:33;12.57;;;6.28;;
83096;SDS011;72968;49.460;11.004;2024-03-07T09:00:04;13.40;;;7.35;;
83096;SDS011;72968;49.460;11.004;2024-03-07T09:02:38;12.05;;;6.68;;
83096;SDS011;72968;49.460;11.004;2024-03-07T09:05:13;11.45;;;6.72;;
83096;SDS011;72968;49.460;11.004;2024-03-07T09:07:46;12.40;;;7.10;;
83096;SDS011;72968;49.460;11.004;2024-03-07T09:10:17;11.68;;;7.05;;
83096;SDS011;72968;49.460;11.004;2024-03-07T09:12:51;14.05;;;7.93;;
83096;SDS011;72968;49.460;11.004;2024-03-07T09:15:24;12.73;;;6.60;;
83096;SDS011;72968;49.460;11.004;2024-03-07T09:17:55;14.43;;;7.35;;
83096;SDS011;72968;49.460;11.004;2024-03-07T09:20:28;11.98;;;6.63;;
83096;SDS011;72968;49.460;11.004;2024-03-07T09:23:01;16.45;;;7.80;;
83096;SDS011;72968;49.460;11.004;2024-03-07T09:25:32;13.25;;;6.82;;
83096;SDS011;72968;49.460;11.004;2024-03-07T09:28:06;12.65;;;6.35;;
83096;SDS011;72968;49.460;11.004;2024-03-07T09:30:45;10.65;;;6.25;;
83096;SDS011;72968;49.460;11.004;2024-03-07T09:33:25;11.25;;;6.47;;
83096;SDS011;72968;49.460;11.004;2024-03-07T09:35:58;13.07;;;6.28;;
83096;SDS011;72968;49.460;11.004;2024-03-07T09:38:30;13.50;;;6.80;;
83096;SDS011;72968;49.460;11.004;2024-03-07T09:41:02;10.68;;;5.68;;
83096;SDS011;72968;49.460;11.004;2024-03-07T09:43:36;12.65;;;5.93;;
83096;SDS011;72968;49.460;11.004;2024-03-07T09:46:15;11.85;;;5.97;;
83096;SDS011;72968;49.460;11.004;2024-03-07T09:48:47;13.18;;;6.60;;
83096;SDS011;72968;49.460;11.004;2024-03-07T09:51:19;14.52;;;6.88;;
83096;SDS011;72968;49.460;11.004;2024-03-07T09:53:51;11.98;;;6.43;;
83096;SDS011;72968;49.460;11.004;2024-03-07T09:56:22;12.73;;;6.68;;
83096;SDS011;72968;49.460;11.004;2024-03-07T09:58:56;12.35;;;6.65;;
83096;SDS011;72968;49.460;11.004;2024-03-07T10:01:28;11.88;;;7.57;;
83096;SDS011;72968;49.460;11.004;2024-03-07T10:04:01;11.45;;;5.97;;
83096;SDS011;72968;49.460;11.004;2024-03-07T10:06:41;12.50;;;6.60;;
83096;SDS011;72968;49.460;11.004;2024-03-07T10:09:18;11.90;;;6.78;;
83096;SDS011;72968;49.460;11.004;2024-03-07T10:11:56;12.73;;;6.45;;
83096;SDS011;72968;49.460;11.004;2024-03-07T10:14:31;11.85;;;6.88;;
83096;SDS011;72968;49.460;11.004;2024-03-07T10:17:03;13.95;;;6.93;;
83096;SDS011;72968;49.460;11.004;2024-03-07T10:19:34;13.23;;;6.88;;
83096;SDS011;72968;49.460;11.004;2024-03-07T10:22:06;10.30;;;5.57;;
83096;SDS011;72968;49.460;11.004;2024-03-07T10:24:38;12.80;;;6.13;;
83096;SDS011;72968;49.460;11.004;2024-03-07T10:27:11;11.85;;;5.75;;
83096;SDS011;72968;49.460;11.004;2024-03-07T10:29:46;12.48;;;6.10;;
83096;SDS011;72968;49.460;11.004;2024-03-07T10:32:19;11.45;;;6.03;;
83096;SDS011;72968;49.460;11.004;2024-03-07T10:34:53;12.07;;;5.88;;
83096;SDS011;72968;49.460;11.004;2024-03-07T10:37:24;11.13;;;5.70;;
83096;SDS011;72968;49.460;11.004;2024-03-07T10:39:56;10.93;;;5.50;;
83096;SDS011;72968;49.460;11.004;2024-03-07T10:42:30;11.63;;;6.05;;
83096;SDS011;72968;49.460;11.004;2024-03-07T10:45:10;9.00;;;4.95;;
83096;SDS011;72968;49.460;11.004;2024-03-07T10:47:43;10.13;;;5.78;;
83096;SDS011;72968;49.460;11.004;2024-03-07T10:50:19;10.13;;;5.82;;
83096;SDS011;72968;49.460;11.004;2024-03-07T10:52:59;7.45;;;4.75;;
83096;SDS011;72968;49.460;11.004;2024-03-07T10:55:37;9.60;;;5.38;;
83096;SDS011;72968;49.460;11.004;2024-03-07T10:58:11;9.50;;;5.07;;
83096;SDS011;72968;49.460;11.004;2024-03-07T11:00:48;11.18;;;5.30;;
83096;SDS011;72968;49.460;11.004;2024-03-07T11:03:22;11.30;;;5.93;;
83096;SDS011;72968;49.460;11.004;2024-03-07T11:05:58;13.10;;;6.43;;
83096;SDS011;72968;49.460;11.004;2024-03-07T11:08:30;9.98;;;5.45;;
83096;SDS011;72968;49.460;11.004;2024-03-07T11:11:02;12.50;;;6.32;;
83096;SDS011;72968;49.460;11.004;2024-03-07T11:13:33;13.18;;;6.47;;
83096;SDS011;72968;49.460;11.004;2024-03-07T11:16:07;10.60;;;6.35;;
83096;SDS011;72968;49.460;11.004;2024-03-07T11:18:39;11.40;;;5.70;;
83096;SDS011;72968;49.460;11.004;2024-03-07T11:23:59;11.10;;;6.03;;
83096;SDS011;72968;49.460;11.004;2024-03-07T11:26:31;10.95;;;6.13;;
83096;SDS011;72968;49.460;11.004;2024-03-07T11:29:02;10.13;;;5.43;;
83096;SDS011;72968;49.460;11.004;2024-03-07T11:31:56;12.43;;;6.07;;
83096;SDS011;72968;49.460;11.004;2024-03-07T11:34:29;11.63;;;6.05;;
83096;SDS011;72968;49.460;11.004;2024-03-07T11:37:01;10.75;;;5.68;;
83096;SDS011;72968;49.460;11.004;2024-03-07T11:39:40;10.07;;;5.93;;
83096;SDS011;72968;49.460;11.004;2024-03-07T11:42:19;9.20;;;5.50;;
83096;SDS011;72968;49.460;11.004;2024-03-07T11:44:50;9.45;;;5.28;;
83096;SDS011;72968;49.460;11.004;2024-03-07T11:47:24;10.23;;;5.75;;
83096;SDS011;72968;49.460;11.004;2024-03-07T11:52:30;9.77;;;5.65;;
83096;SDS011;72968;49.460;11.004;2024-03-07T11:55:03;10.35;;;5.38;;
83096;SDS011;72968;49.460;11.004;2024-03-07T11:57:36;9.10;;;4.95;;
83096;SDS011;72968;49.460;11.004;2024-03-07T12:00:09;9.88;;;5.78;;
83096;SDS011;72968;49.460;11.004;2024-03-07T12:02:47;11.40;;;5.82;;
83096;SDS011;72968;49.460;11.004;2024-03-07T12:05:21;10.40;;;5.40;;
83096;SDS011;72968;49.460;11.004;2024-03-07T12:07:53;8.10;;;5.10;;
83096;SDS011;72968;49.460;11.004;2024-03-07T12:10:24;10.75;;;5.90;;
83096;SDS011;72968;49.460;11.004;2024-03-07T12:12:56;12.73;;;6.07;;
83096;SDS011;72968;49.460;11.004;2024-03-07T12:15:28;10.75;;;6.40;;
83096;SDS011;72968;49.460;11.004;2024-03-07T12:18:01;9.93;;;5.18;;
83096;SDS011;72968;49.460;11.004;2024-03-07T12:20:33;9.13;;;5.13;;
83096;SDS011;72968;49.460;11.004;2024-03-07T12:23:05;9.45;;;5.65;;
83096;SDS011;72968;49.460;11.004;2024-03-07T12:25:38;8.85;;;4.82;;
83096;SDS011;72968;49.460;11.004;2024-03-07T12:28:10;10.48;;;5.68;;
83096;SDS011;72968;49.460;11.004;2024-03-07T12:30:48;9.82;;;5.43;;
83096;SDS011;72968;49.460;11.004;2024-03-07T12:33:22;11.98;;;5.72;;
83096;SDS011;72968;49.460;11.004;2024-03-07T12:35:56;10.07;;;4.82;;
83096;SDS011;72968;49.460;11.004;2024-03-07T12:38:36;10.77;;;5.70;;
83096;SDS011;72968;49.460;11.004;2024-03-07T12:41:08;11.32;;;5.90;;
83096;SDS011;72968;49.460;11.004;2024-03-07T12:43:43;10.85;;;5.22;;
83096;SDS011;72968;49.460;11.004;2024-03-07T12:46:16;11.07;;;6.57;;
83096;SDS011;72968;49.460;11.004;2024-03-07T12:48:50;10.30;;;6.43;;
83096;SDS011;72968;49.460;11.004;2024-03-07T12:51:22;8.55;;;4.90;;
83096;SDS011;72968;49.460;11.004;2024-03-07T12:53:54;9.73;;;4.38;;
83096;SDS011;72968;49.460;11.004;2024-03-07T12:56:26;10.15;;;5.18;;
83096;SDS011;72968;49.460;11.004;2024-03-07T12:58:57;10.10;;;5.18;;
83096;SDS011;72968;49.460;11.004;2024-03-07T13:01:30;12.02;;;6.07;;
83096;SDS011;72968;49.460;11.004;2024-03-07T13:04:05;9.90;;;6.10;;
83096;SDS011;72968;49.460;11.004;2024-03-07T13:06:37;12.65;;;6.55;;
83096;SDS011;72968;49.460;11.004;2024-03-07T13:09:13;11.75;;;5.47;;
83096;SDS011;72968;49.460;11.004;2024-03-07T13:11:44;12.10;;;6.35;;
83096;SDS011;72968;49.460;11.004;2024-03-07T13:14:19;10.52;;;5.65;;
83096;SDS011;72968;49.460;11.004;2024-03-07T13:16:50;14.57;;;6.07;;
83096;SDS011;72968;49.460;11.004;2024-03-07T13:19:23;8.77;;;4.97;;
83096;SDS011;72968;49.460;11.004;2024-03-07T13:21:57;10.77;;;6.05;;
83096;SDS011;72968;49.460;11.004;2024-03-07T13:24:28;13.52;;;6.82;;
83096;SDS011;72968;49.460;11.004;2024-03-07T13:27:01;11.35;;;5.45;;
83096;SDS011;72968;49.460;11.004;2024-03-07T13:29:33;10.38;;;5.85;;
83096;SDS011;72968;49.460;11.004;2024-03-07T13:32:05;9.77;;;6.05;;
83096;SDS011;72968;49.460;11.004;2024-03-07T13:34:38;12.45;;;5.70;;
83096;SDS011;72968;49.460;11.004;2024-03-07T13:37:12;10.40;;;5.35;;
83096;SDS011;72968;49.460;11.004;2024-03-07T13:39:48;12.40;;;6.32;;
83096;SDS011;72968;49.460;11.004;2024-03-07T13:42:21;9.82;;;5.43;;
83096;SDS011;72968;49.460;11.004;2024-03-07T13:44:53;10.98;;;5.80;;
83096;SDS011;72968;49.460;11.004;2024-03-07T13:47:24;12.18;;;6.32;;
83096;SDS011;72968;49.460;11.004;2024-03-07T13:50:00;12.50;;;5.97;;
83096;SDS011;72968;49.460;11.004;2024-03-07T13:52:42;12.75;;;5.88;;
83096;SDS011;72968;49.460;11.004;2024-03-07T13:55:35;6.88;;;4.22;;
83096;SDS011;72968;49.460;11.004;2024-03-07T13:58:11;9.32;;;4.78;;
83096;SDS011;72968;49.460;11.004;2024-03-07T14:00:47;10.07;;;4.60;;
83096;SDS011;72968;49.460;11.004;2024-03-07T14:03:36;10.13;;;6.15;;
83096;SDS011;72968;49.460;11.004;2024-03-07T14:06:20;8.27;;;4.75;;
83096;SDS011;72968;49.460;11.004;2024-03-07T14:11:52;13.82;;;5.75;;
83096;SDS011;72968;49.460;11.004;2024-03-07T14:14:52;10.25;;;5.25;;
83096;SDS011;72968;49.460;11.004;2024-03-07T14:17:39;10.45;;;5.68;;
83096;SDS011;72968;49.460;11.004;2024-03-07T14:23:10;13.02;;;5.78;;
83096;SDS011;72968;49.460;11.004;2024-03-07T14:25:47;9.98;;;5.78;;
83096;SDS011;72968;49.460;11.004;2024-03-07T14:31:11;10.32;;;4.97;;
83096;SDS011;72968;49.460;11.004;2024-03-07T14:33:52;10.00;;;6.05;;
83096;SDS011;72968;49.460;11.004;2024-03-07T14:36:32;12.88;;;5.85;;
83096;SDS011;72968;49.460;11.004;2024-03-07T14:39:04;10.20;;;5.70;;
83096;SDS011;72968;49.460;11.004;2024-03-07T14:41:40;12.68;;;6.57;;
83096;SDS011;72968;49.460;11.004;2024-03-07T14:44:14;12.73;;;6.05;;
83096;SDS011;72968;49.460;11.004;2024-03-07T14:46:47;11.88;;;6.10;;
83096;SDS011;72968;49.460;11.004;2024-03-07T14:49:20;13.43;;;6.10;;
83096;SDS011;72968;49.460;11.004;2024-03-07T14:51:53;11.13;;;6.13;;
83096;SDS011;72968;49.460;11.004;2024-03-07T14:54:31;11.27;;;6.15;;
83096;SDS011;72968;49.460;11.004;2024-03-07T14:57:03;10.80;;;6.15;;
83096;SDS011;72968;49.460;11.004;2024-03-07T14:59:35;9.32;;;5.28;;
83096;SDS011;72968;49.460;11.004;2024-03-07T15:02:10;12.98;;;5.85;;
83096;SDS011;72968;49.460;11.004;2024-03-07T15:04:45;12.43;;;5.38;;
83096;SDS011;72968;49.460;11.004;2024-03-07T15:07:17;10.82;;;6.05;;
83096;SDS011;72968;49.460;11.004;2024-03-07T15:09:55;10.98;;;5.65;;
83096;SDS011;72968;49.460;11.004;2024-03-07T15:12:28;6.68;;;3.85;;
83096;SDS011;72968;49.460;11.004;2024-03-07T15:15:03;10.68;;;5.28;;
83096;SDS011;72968;49.460;11.004;2024-03-07T15:17:34;10.70;;;6.22;;
83096;SDS011;72968;49.460;11.004;2024-03-07T15:20:07;10.80;;;6.38;;
83096;SDS011;72968;49.460;11.004;2024-03-07T15:22:45;10.20;;;5.95;;
83096;SDS011;72968;49.460;11.004;2024-03-07T15:25:27;14.82;;;5.85;;
83096;SDS011;72968;49.460;11.004;2024-03-07T15:27:59;15.90;;;6.32;;
83096;SDS011;72968;49.460;11.004;2024-03-07T15:30:32;16.55;;;7.65;;
83096;SDS011;72968;49.460;11.004;2024-03-07T15:33:19;15.00;;;7.07;;
83096;SDS011;72968;49.460;11.004;2024-03-07T15:36:13;16.17;;;6.55;;
83096;SDS011;72968;49.460;11.004;2024-03-07T15:38:45;16.27;;;7.32;;
83096;SDS011;72968;49.460;11.004;2024-03-07T15:41:19;13.23;;;7.65;;
83096;SDS011;72968;49.460;11.004;2024-03-07T15:43:54;12.07;;;6.32;;
83096;SDS011;72968;49.460;11.004;2024-03-07T15:46:26;12.25;;;6.10;;
83096;SDS011;72968;49.460;11.004;2024-03-07T15:48:59;10.30;;;5.07;;
83096;SDS011;72968;49.460;11.004;2024-03-07T15:51:32;13.55;;;6.78;;